Terminal Aerodrome Forecast
Issued by NWS Northern Indiana

Home | Current Version | Previous Version | Text Only | Print | Product List | Glossary On
Versions: 1 2 3 4 5 6 7 8 9 10 11 12 13 14 15 16
000
FTUS43 KIWX 010520
TAFFWA
TAF
KFWA 010520Z 0106/0206 28004KT 4SM BR SCT250
      TEMPO 0109/0112 2SM BR BKN006
     FM011300 31006KT P6SM BKN025
     FM011500 30008KT P6SM SCT040
     FM012300 34004KT P6SM SCT250=

USA.gov is the U.S. government's official web portal to all federal, state and local government web resources and services.